Lovelaceville, Kentucky
Current Conditions -  °F | °C
As of 1:16 PM on Sunday 23 Nov 2014 (Local Time) from KPAH Reporting Station
Moderate Rain Moderate Rain  
Wind Chill: 56°   Ceiling: 900
Heat Index: 56°   Visibility: 3mi
Dew Point: 54°   Wind: 9mph
Humidity: 93%   Direction: 120°ESE
Pressure: 29.48"   Gusts: NA
Location:  36.97°N, 88.83°W
Report Text: KPAH 231916Z 12008KT 3SM RA BR BKN009 OVC065 13/12 A2948 RMK AO2 P0005 T01330122 $
Loading
Personal Weather Stations






























Interactive Weather Map New forecast layout! Learn more

10-Day Weather Forecast

Advertisements
Track Severe Weather on mobile